Chester, New Jersey
Current Conditions -  °F | °C
As of 8:53 AM on Sunday 25 Jan 2015 (Local Time) from KSMQ Reporting Station
Broken Clouds Broken Clouds  
Wind Chill: 33°   Ceiling: 6500
Heat Index: 38°   Visibility: 10mi
Dew Point: 28°   Wind: 6mph
Humidity: 68%   Direction: NA
Pressure: 29.72"   Gusts: NA
Location:  40.78°N, 74.7°W
Report Text: KSMQ 251353Z AUTO VRB05KT 10SM BKN065 03/M02 A2972 RMK AO2 SLP064 T00331022 TSNO $
Loading
Personal Weather Stations






























Interactive Weather Map New forecast layout! Learn more

10-Day Weather Forecast

Advertisements
Track Severe Weather on mobile